Time;durP1;ratioP1;P1;durP2;ratioP2;P2;SDS_P1;SDS_P2;PMS_P1;PMS_P2;Temp;Humidity;BMP_temperature;BMP_pressure;BME280_temperature;BME280_humidity;BME280_pressure;Samples;Min_cycle;Max_cycle;Signal;HPM_P1;HPM_P2
2023/05/14 00:01:28;;;;;;;4.07;2.53;;;;;;;13.14;57.89;101613.19;15584547;28;20040;-54
2023/05/14 00:09:01;;;;;;;3.95;2.20;;;;;;;13.28;58.27;101631.88;15603368;28;20112;-53
2023/05/14 00:16:35;;;;;;;5.17;2.73;;;;;;;13.21;58.13;101617.56;15590660;28;20436;-55
2023/05/14 00:24:08;;;;;;;5.30;2.35;;;;;;;13.05;58.49;101614.41;15570592;28;20585;-52
2023/05/14 00:31:42;;;;;;;4.13;2.17;;;;;;;12.91;59.30;101609.00;15574474;28;20180;-53
2023/05/14 00:39:14;;;;;;;5.68;2.58;;;;;;;12.83;59.13;101603.81;15552490;28;20042;-53
2023/05/14 00:46:49;;;;;;;4.78;2.35;;;;;;;12.77;59.28;101605.44;15537038;28;20431;-53
2023/05/14 00:54:22;;;;;;;4.63;3.03;;;;;;;12.72;59.65;101607.91;15589125;28;20490;-53
2023/05/14 01:01:57;;;;;;;;;;;;;;;12.58;60.55;101592.75;15573619;28;20136;-52
2023/05/14 01:09:36;;;;;;;5.97;3.70;;;;;;;12.52;60.23;101588.19;15534577;28;19925;-52
2023/05/14 01:17:12;;;;;;;8.38;3.17;;;;;;;12.33;61.30;101592.47;15548783;28;20144;-54
2023/05/14 01:24:46;;;;;;;3.72;2.45;;;;;;;12.22;61.15;101593.03;15550594;28;20084;-52
2023/05/14 01:32:23;;;;;;;7.43;3.38;;;;;;;12.19;60.72;101588.88;15564562;28;20057;-52
2023/05/14 01:39:58;;;;;;;4.15;2.78;;;;;;;11.99;61.69;101585.28;15594857;28;20103;-49
2023/05/14 01:47:31;;;;;;;7.97;2.78;;;;;;;11.89;61.96;101576.69;15580822;28;20042;-51
2023/05/14 01:55:06;;;;;;;7.83;2.53;;;;;;;11.66;62.75;101579.66;15561985;28;20042;-50
2023/05/14 02:02:39;;;;;;;12.77;3.97;;;;;;;11.60;62.69;101569.66;15573143;28;20125;-51
2023/05/14 02:10:15;;;;;;;9.90;3.17;;;;;;;11.46;63.47;101569.56;15563446;28;20438;-48
2023/05/14 02:17:47;;;;;;;2.22;2.05;;;;;;;11.39;63.49;101566.03;15568840;28;20034;-50
2023/05/14 02:25:22;;;;;;;3.70;2.17;;;;;;;11.22;63.96;101567.31;15544064;28;20056;-48
2023/05/14 02:32:54;;;;;;;3.78;2.45;;;;;;;11.17;63.89;101565.22;15559836;28;20050;-49
2023/05/14 02:40:29;;;;;;;6.35;2.75;;;;;;;11.17;63.96;101559.00;15542181;28;20038;-51
2023/05/14 02:48:01;;;;;;;4.18;2.83;;;;;;;11.13;63.88;101558.56;15557451;28;20053;-50
2023/05/14 02:55:36;;;;;;;4.23;2.70;;;;;;;10.92;65.07;101564.78;15559239;28;20646;-54
2023/05/14 03:03:08;;;;;;;4.68;2.97;;;;;;;10.96;64.68;101559.88;15538363;28;20418;-51
2023/05/14 03:10:43;;;;;;;4.50;2.97;;;;;;;10.87;64.86;101545.75;15549703;28;20045;-52
2023/05/14 03:18:15;;;;;;;2.78;2.10;;;;;;;10.94;65.30;101564.59;15602852;28;20526;-54
2023/05/14 03:25:49;;;;;;;3.33;2.13;;;;;;;11.15;64.82;101563.75;15553592;28;20041;-49
2023/05/14 03:33:23;;;;;;;6.05;3.35;;;;;;;11.24;65.52;101566.13;15603852;28;20486;-51
2023/05/14 03:40:57;;;;;;;7.93;2.65;;;;;;;11.52;64.88;101559.91;15575050;28;20124;-48
2023/05/14 03:48:30;;;;;;;4.07;2.60;;;;;;;11.55;64.13;101545.22;15552799;28;20499;-51
2023/05/14 03:56:05;;;;;;;3.87;2.93;;;;;;;11.68;63.61;101556.06;15572461;28;20060;-50
2023/05/14 04:03:38;;;;;;;6.00;3.10;;;;;;;11.71;63.27;101550.31;15576893;28;20052;-50
2023/05/14 04:11:13;;;;;;;3.60;2.17;;;;;;;11.81;62.51;101547.25;15575227;28;20057;-52
2023/05/14 04:18:46;;;;;;;5.40;2.55;;;;;;;11.62;62.74;101541.56;15575345;28;20034;-51
2023/05/14 04:26:20;;;;;;;3.05;1.77;;;;;;;12.02;62.26;101524.81;15572225;28;20068;-52
2023/05/14 04:33:53;;;;;;;3.78;2.30;;;;;;;12.28;61.91;101537.56;15561791;28;20399;-51
2023/05/14 04:41:27;;;;;;;3.60;2.50;;;;;;;12.24;60.85;101531.75;15554347;28;20536;-47
2023/05/14 04:49:00;;;;;;;5.32;2.05;;;;;;;12.28;60.44;101538.41;15559878;28;20457;-51
2023/05/14 04:56:34;;;;;;;3.77;2.47;;;;;;;12.77;58.76;101542.66;15557332;28;20037;-51
2023/05/14 05:04:07;;;;;;;5.25;2.95;;;;;;;13.24;57.60;101527.34;15515576;28;20058;-50
2023/05/14 05:11:43;;;;;;;5.00;2.27;;;;;;;13.66;56.59;101528.78;15537836;28;20202;-51
2023/05/14 05:19:17;;;;;;;7.60;2.58;;;;;;;14.15;55.14;101526.53;15535823;28;20045;-54
2023/05/14 05:26:52;;;;;;;3.33;1.80;;;;;;;14.66;54.40;101514.84;15554237;28;20069;-53
2023/05/14 05:34:25;;;;;;;4.97;2.08;;;;;;;14.47;51.75;101519.28;15563568;28;20499;-52
2023/05/14 05:41:59;;;;;;;3.03;1.63;;;;;;;15.00;51.59;101517.06;15554185;28;20060;-54
2023/05/14 05:49:32;;;;;;;2.20;1.60;;;;;;;15.61;50.53;101518.16;15585080;28;20040;-53
2023/05/14 05:57:09;;;;;;;3.53;1.90;;;;;;;15.74;48.57;101512.63;15561989;28;20380;-51
2023/05/14 06:04:41;;;;;;;2.95;2.20;;;;;;;15.87;48.38;101513.53;15562053;28;20041;-52
2023/05/14 06:12:15;;;;;;;2.37;1.27;;;;;;;15.40;49.28;101515.91;15599540;28;20072;-54
2023/05/14 06:19:51;;;;;;;5.57;2.25;;;;;;;15.52;48.57;101512.22;15616963;28;20116;-51
2023/05/14 06:27:25;;;;;;;3.85;2.05;;;;;;;15.68;49.73;101521.66;15613572;28;20042;-52
2023/05/14 06:34:58;;;;;;;4.25;2.10;;;;;;;16.16;49.31;101520.06;15600634;28;20053;-54
2023/05/14 06:42:32;;;;;;;4.67;1.87;;;;;;;16.72;46.59;101514.28;15593431;28;20472;-55
2023/05/14 06:50:05;;;;;;;3.10;1.83;;;;;;;16.36;47.15;101519.78;15578862;28;20038;-51
2023/05/14 06:57:39;;;;;;;;;;;;;;;16.54;46.64;101520.56;15588901;28;20042;-56
2023/05/14 07:05:13;;;;;;;4.35;2.03;;;;;;;16.83;47.94;101512.66;15590784;28;19948;-53
2023/05/14 07:12:48;;;;;;;2.83;1.65;;;;;;;16.93;48.19;101517.53;15596736;28;20156;-55
2023/05/14 07:20:27;;;;;;;5.70;2.00;;;;;;;16.81;47.08;101507.47;15562434;28;20073;-56
2023/05/14 07:28:04;;;;;;;4.75;1.48;;;;;;;17.56;43.54;101511.38;15562780;28;20034;-55
2023/05/14 07:35:37;;;;;;;4.03;2.20;;;;;;;17.89;43.92;101509.94;15602567;28;20041;-53
2023/05/14 07:43:12;;;;;;;2.55;1.55;;;;;;;18.78;46.33;101494.81;15600172;28;20041;-52
2023/05/14 07:50:45;;;;;;;4.53;1.80;;;;;;;19.22;41.36;101486.81;15549474;28;20163;-53
2023/05/14 07:58:18;;;;;;;;;;;;;;;19.02;41.51;101478.31;15538363;28;20146;-54
2023/05/14 08:05:51;;;;;;;3.65;2.00;;;;;;;19.10;40.96;101475.19;15554968;28;19921;-54
2023/05/14 08:13:25;;;;;;;2.55;1.70;;;;;;;19.94;39.46;101469.53;15552183;28;20038;-53
2023/05/14 08:20:58;;;;;;;3.05;1.63;;;;;;;20.04;38.73;101464.19;15536636;28;20046;-50
2023/05/14 08:28:32;;;;;;;3.83;1.80;;;;;;;20.65;40.14;101461.25;15553493;28;20049;-49
2023/05/14 08:36:06;;;;;;;8.27;1.63;;;;;;;20.21;39.26;101455.09;15564046;28;20655;-49
2023/05/14 08:43:45;;;;;;;2.40;1.10;;;;;;;21.13;37.79;101443.09;15583607;28;20100;-50
2023/05/14 08:51:26;;;;;;;1.52;1.00;;;;;;;21.35;36.38;101435.56;15543029;28;20419;-54
2023/05/14 08:59:03;;;;;;;3.28;1.50;;;;;;;22.05;34.72;101427.09;15574985;28;20662;-54
2023/05/14 09:06:52;;;;;;;2.55;1.33;;;;;;;22.67;33.57;101415.97;15540928;28;20673;-56
2023/05/14 09:14:30;;;;;;;;;;;;;;;22.66;31.52;101419.81;15556098;28;20045;-54
2023/05/14 09:22:08;;;;;;;4.07;2.03;;;;;;;22.36;31.59;101404.19;15592223;28;19921;-56
2023/05/14 09:29:43;;;;;;;2.63;1.30;;;;;;;22.69;30.70;101392.97;15584789;28;20050;-57
2023/05/14 09:37:16;;;;;;;2.63;1.15;;;;;;;22.66;30.94;101347.81;15570632;28;20045;-54
2023/05/14 09:44:53;;;;;;;1.52;1.10;;;;;;;23.43;30.32;101368.41;15579486;28;20070;-57
2023/05/14 09:52:27;;;;;;;3.20;1.10;;;;;;;24.38;31.64;101356.31;15577039;28;20153;-53
2023/05/14 10:00:01;;;;;;;2.95;1.42;;;;;;;24.07;28.25;101346.69;15581121;28;20446;-55
2023/05/14 10:07:41;;;;;;;4.53;1.30;;;;;;;23.77;28.39;101326.59;15569677;28;20045;-56
2023/05/14 10:15:22;;;;;;;3.28;1.38;;;;;;;22.65;29.18;101327.00;15577383;28;20042;-55
2023/05/14 10:23:06;;;;;;;2.70;1.13;;;;;;;23.39;28.82;101303.50;15604928;28;20192;-57
2023/05/14 10:30:44;;;;;;;2.63;1.35;;;;;;;23.10;30.37;101301.44;15580621;28;20076;-57
2023/05/14 10:38:17;;;;;;;2.72;1.33;;;;;;;21.49;31.52;101302.06;15593055;28;20470;-56
2023/05/14 10:45:51;;;;;;;3.33;1.00;;;;;;;20.89;32.37;101306.22;15578957;28;20506;-53
2023/05/14 10:53:33;;;;;;;1.27;0.90;;;;;;;20.42;33.47;101298.78;15575713;28;20053;-53
2023/05/14 11:01:15;;;;;;;2.60;1.43;;;;;;;20.51;35.15;101296.41;15603422;28;20048;-57
2023/05/14 11:08:52;;;;;;;2.33;1.17;;;;;;;20.19;34.27;101289.09;15595177;28;20033;-51
2023/05/14 11:16:29;;;;;;;1.55;0.85;;;;;;;20.50;33.64;101268.31;15545417;28;20503;-57
2023/05/14 11:24:04;;;;;;;2.40;1.52;;;;;;;20.87;34.96;101275.63;15581619;28;20521;-52
2023/05/14 11:31:38;;;;;;;2.58;1.30;;;;;;;20.30;34.49;101260.81;15584762;28;20049;-52
2023/05/14 11:39:18;;;;;;;2.45;1.10;;;;;;;20.74;32.49;101255.09;15549503;28;20467;-58
2023/05/14 11:46:56;;;;;;;2.83;1.20;;;;;;;21.22;32.80;101234.00;15569712;28;20061;-50
2023/05/14 11:54:29;;;;;;;7.55;1.48;;;;;;;21.53;32.50;101223.13;15564867;28;20129;-54
2023/05/14 12:02:04;;;;;;;2.03;1.15;;;;;;;22.41;30.50;101203.69;15566227;28;20038;-52
2023/05/14 12:09:47;;;;;;;2.15;1.45;;;;;;;21.43;30.40;101184.91;15596278;28;20050;-52
2023/05/14 12:17:22;;;;;;;3.33;1.15;;;;;;;20.57;32.47;101217.09;15586536;28;20052;-51
2023/05/14 12:24:56;;;;;;;3.80;1.42;;;;;;;20.72;33.78;101205.44;15575232;28;20046;-50
2023/05/14 12:32:31;;;;;;;2.22;1.48;;;;;;;20.81;33.00;101198.38;15562785;28;20046;-53
2023/05/14 12:40:07;;;;;;;2.15;1.30;;;;;;;21.52;32.10;101184.09;15594796;28;20392;-51
2023/05/14 12:47:53;;;;;;;2.25;1.20;;;;;;;21.35;31.99;101189.78;15535595;28;20045;-53
2023/05/14 12:55:26;;;;;;;2.70;1.42;;;;;;;21.26;32.40;101185.09;15573575;28;20097;-51
2023/05/14 13:03:00;;;;;;;2.00;1.02;;;;;;;20.45;32.63;101148.28;15545621;28;20084;-50
2023/05/14 13:10:33;;;;;;;2.15;0.90;;;;;;;20.99;33.05;101167.06;15565883;28;20037;-53
2023/05/14 13:18:07;;;;;;;2.92;0.95;;;;;;;20.52;33.35;101156.28;15570648;28;20038;-57
2023/05/14 13:25:40;;;;;;;1.27;0.80;;;;;;;20.54;32.65;101157.63;15628816;22;20140;-49
2023/05/14 13:33:14;;;;;;;;;;;;;;;20.94;32.21;101147.09;15625612;28;20157;-54
2023/05/14 13:40:47;;;;;;;4.25;1.77;;;;;;;20.83;31.46;101149.81;15639155;28;19921;-49
2023/05/14 13:48:20;;;;;;;;;;;;;;;20.88;32.07;101133.44;15632138;28;20056;-50
2023/05/14 13:56:07;;;;;;;2.58;1.02;;;;;;;21.28;32.64;101131.06;15648694;28;19927;-52
2023/05/14 14:03:41;;;;;;;1.60;0.70;;;;;;;20.96;32.94;101114.91;15653408;28;20382;-49
2023/05/14 14:11:21;;;;;;;1.42;0.75;;;;;;;20.22;32.54;101111.38;15658318;28;20590;-49
2023/05/14 14:18:58;;;;;;;1.33;0.88;;;;;;;20.04;33.80;101112.63;15670311;28;20138;-51
2023/05/14 14:26:32;;;;;;;2.85;1.17;;;;;;;19.86;33.31;101107.63;15638082;28;20045;-48
2023/05/14 14:34:07;;;;;;;1.60;0.70;;;;;;;20.27;33.00;101096.94;15646055;28;20194;-52
2023/05/14 14:41:40;;;;;;;2.60;1.08;;;;;;;20.06;33.39;101088.69;15631204;28;20044;-50
2023/05/14 14:49:14;;;;;;;2.53;0.98;;;;;;;19.83;33.83;101079.03;15648168;28;20049;-49
2023/05/14 14:56:48;;;;;;;1.45;0.95;;;;;;;20.17;33.47;101073.19;15668119;28;20048;-49
2023/05/14 15:04:22;;;;;;;1.23;0.65;;;;;;;20.04;33.60;101063.59;15650168;28;20112;-50
2023/05/14 15:11:55;;;;;;;3.22;1.30;;;;;;;20.51;33.61;101061.88;15664408;28;20320;-47
2023/05/14 15:19:31;;;;;;;3.50;1.35;;;;;;;20.77;32.46;101058.13;15654903;28;20041;-47
2023/05/14 15:27:04;;;;;;;1.95;0.90;;;;;;;20.88;34.32;101040.66;15672914;28;20235;-48
2023/05/14 15:34:38;;;;;;;1.55;0.77;;;;;;;21.20;33.30;101034.13;15671462;28;20068;-47
2023/05/14 15:42:10;;;;;;;2.17;0.90;;;;;;;21.17;33.68;101037.44;15653326;28;20379;-51
2023/05/14 15:49:47;;;;;;;1.48;0.80;;;;;;;20.47;31.91;101019.84;15614880;28;20037;-47
2023/05/14 15:57:31;;;;;;;1.35;0.73;;;;;;;21.02;31.56;101023.75;15670788;28;20053;-51
2023/05/14 16:05:07;;;;;;;1.92;1.00;;;;;;;20.87;31.07;101009.03;15637036;28;20053;-48
2023/05/14 16:12:40;;;;;;;1.85;0.85;;;;;;;20.57;32.42;101014.47;15654162;28;20043;-48
2023/05/14 16:20:15;;;;;;;;;;;;;;;20.31;32.31;101005.38;15671713;28;20511;-46
2023/05/14 16:27:48;;;;;;;1.35;0.95;;;;;;;20.61;31.69;101005.47;15669255;28;20007;-48
2023/05/14 16:35:22;;;;;;;1.45;0.93;;;;;;;20.40;32.17;100998.28;15651818;28;20041;-51
2023/05/14 16:42:54;;;;;;;1.73;0.90;;;;;;;20.49;32.74;100996.72;15664250;28;20083;-50
2023/05/14 16:50:29;;;;;;;3.25;1.45;;;;;;;20.52;33.18;100993.47;15649595;28;20102;-50
2023/05/14 16:58:02;;;;;;;1.38;0.80;;;;;;;20.64;32.61;100996.72;15643999;28;20054;-50
2023/05/14 17:05:36;;;;;;;;;;;;;;;20.70;33.34;100985.81;15586820;28;20056;-49
2023/05/14 17:13:09;;;;;;;1.40;1.20;;;;;;;19.93;33.40;100982.91;15668759;28;19991;-53
2023/05/14 17:20:43;;;;;;;2.88;1.17;;;;;;;20.14;33.66;100975.59;15650045;28;20041;-53
2023/05/14 17:28:16;;;;;;;2.75;1.25;;;;;;;19.76;34.57;100976.81;15658616;28;20052;-50
2023/05/14 17:35:50;;;;;;;3.15;1.08;;;;;;;19.81;33.83;100974.13;15662724;28;20139;-49
2023/05/14 17:43:23;;;;;;;3.08;1.20;;;;;;;19.71;33.99;100977.63;15679919;28;20044;-50
2023/05/14 17:51:06;;;;;;;2.00;1.08;;;;;;;19.33;35.44;100978.75;15651158;28;20063;-49
2023/05/14 17:58:42;;;;;;;0.80;0.47;;;;;;;19.44;35.67;100982.34;15678582;28;20041;-53
2023/05/14 18:06:16;;;;;;;;;;;;;;;19.95;36.81;100986.16;15660983;28;20531;-50
2023/05/14 18:13:49;;;;;;;4.75;0.88;;;;;;;19.06;36.92;100970.66;15678664;28;19984;-51
2023/05/14 18:21:30;;;;;;;1.92;0.85;;;;;;;18.65;37.58;100992.03;15678550;28;20044;-50
2023/05/14 18:29:03;;;;;;;15.00;6.15;;;;;;;18.50;37.59;100998.16;15677344;28;20041;-48
2023/05/14 18:36:37;;;;;;;0.93;0.50;;;;;;;18.46;39.00;100999.75;15642996;28;20458;-49
2023/05/14 18:44:10;;;;;;;1.05;0.70;;;;;;;18.51;39.11;100991.66;15621799;28;20649;-48
2023/05/14 18:51:49;;;;;;;1.70;0.45;;;;;;;18.76;40.18;101006.59;15619931;28;20041;-49
2023/05/14 18:59:30;;;;;;;1.20;0.80;;;;;;;18.50;39.82;101002.78;15590054;28;20041;-46
2023/05/14 19:07:13;;;;;;;5.55;1.58;;;;;;;18.33;42.14;101003.72;15616172;28;20047;-49
2023/05/14 19:14:48;;;;;;;1.73;0.80;;;;;;;17.69;42.28;101019.72;15623890;28;20077;-49
2023/05/14 19:22:22;;;;;;;1.45;0.90;;;;;;;17.98;40.39;101016.88;15626926;22;20049;-52
2023/05/14 19:29:55;;;;;;;11.63;4.70;;;;;;;17.93;42.22;101014.09;15641437;28;20041;-53
2023/05/14 19:37:30;;;;;;;7.13;2.17;;;;;;;17.35;43.87;101005.41;15591627;28;20041;-54
2023/05/14 19:45:03;;;;;;;3.10;1.23;;;;;;;17.15;44.75;101000.47;15614601;28;20038;-51
2023/05/14 19:52:37;;;;;;;3.00;1.55;;;;;;;16.89;45.37;100993.00;15612248;28;20045;-54
2023/05/14 20:00:11;;;;;;;4.57;1.67;;;;;;;16.41;45.95;100983.44;15616651;28;20049;-54
2023/05/14 20:07:47;;;;;;;2.20;1.42;;;;;;;16.24;47.54;100988.84;15554903;28;20140;-52
2023/05/14 20:15:20;;;;;;;2.13;1.60;;;;;;;15.97;48.89;100980.44;15557096;28;20065;-57
2023/05/14 20:22:54;;;;;;;6.60;2.03;;;;;;;15.69;49.77;100971.22;15519871;28;20509;-50
2023/05/14 20:30:28;;;;;;;6.03;2.47;;;;;;;15.50;50.50;100972.38;15554476;28;20301;-54
2023/05/14 20:38:17;;;;;;;1.90;1.50;;;;;;;15.23;50.63;100967.47;15555732;28;20061;-53
2023/05/14 20:45:50;;;;;;;3.97;2.00;;;;;;;15.10;51.00;100962.28;15521058;28;20074;-54
2023/05/14 20:53:43;;;;;;;13.27;2.57;;;;;;;14.77;53.24;100950.16;15533281;28;20319;-55
2023/05/14 21:01:38;;;;;;;2.42;1.80;;;;;;;14.84;52.94;100952.75;15516705;28;20293;-56
2023/05/14 21:09:26;;;;;;;2.58;1.60;;;;;;;14.82;52.72;100944.03;15560638;28;20056;-57
2023/05/14 21:17:18;;;;;;;3.45;1.65;;;;;;;14.62;52.39;100938.16;15554213;28;20454;-55
2023/05/14 21:25:08;;;;;;;4.25;2.22;;;;;;;14.74;53.47;100929.00;15552875;28;20069;-57
2023/05/14 21:33:16;;;;;;;1.10;0.77;;;;;;;14.67;53.53;100925.59;15555616;28;20203;-56
2023/05/14 21:40:50;;;;;;;2.73;1.70;;;;;;;14.70;53.56;100924.31;15594499;28;20084;-56
2023/05/14 21:48:23;;;;;;;2.53;1.58;;;;;;;14.55;54.35;100916.66;15560770;28;20045;-55
2023/05/14 21:56:18;;;;;;;2.95;1.52;;;;;;;14.39;54.69;100917.28;15535961;28;20088;-54
2023/05/14 22:03:51;;;;;;;8.02;1.50;;;;;;;14.13;55.63;100905.81;15543436;28;20080;-55
2023/05/14 22:11:28;;;;;;;3.97;1.80;;;;;;;13.87;56.77;100896.22;15556441;28;20046;-56
2023/05/14 22:19:22;;;;;;;3.25;1.80;;;;;;;13.48;58.08;100895.66;15553660;28;20052;-56
2023/05/14 22:26:57;;;;;;;3.73;1.83;;;;;;;13.50;57.92;100887.34;15568319;28;20081;-55
2023/05/14 22:34:30;;;;;;;5.40;2.38;;;;;;;13.36;57.76;100892.06;15573875;28;20487;-55
2023/05/14 22:42:28;;;;;;;3.13;1.53;;;;;;;13.17;59.01;100882.28;15564768;28;20125;-54
2023/05/14 22:50:10;;;;;;;3.22;1.73;;;;;;;13.00;59.60;100873.97;15539071;28;20422;-55
2023/05/14 22:57:47;;;;;;;20.52;2.00;;;;;;;12.94;59.98;100867.59;15561003;28;20049;-55
2023/05/14 23:05:19;;;;;;;2.00;1.42;;;;;;;12.76;60.32;100856.78;15576372;28;20406;-54
2023/05/14 23:12:57;;;;;;;2.47;1.20;;;;;;;12.60;60.48;100860.88;15566434;28;20041;-57
2023/05/14 23:20:48;;;;;;;4.80;1.90;;;;;;;12.75;60.13;100845.19;15575798;28;20398;-54
2023/05/14 23:28:25;;;;;;;4.50;1.60;;;;;;;12.60;61.27;100842.03;15532492;28;20050;-54
2023/05/14 23:36:00;;;;;;;2.78;1.73;;;;;;;12.65;61.31;100831.41;15582103;28;20498;-57
2023/05/14 23:44:02;;;;;;;3.92;1.85;;;;;;;12.58;61.19;100825.25;15593163;28;20053;-56
2023/05/14 23:51:50;;;;;;;4.28;1.80;;;;;;;12.51;61.45;100816.44;15560645;28;20053;-53
2023/05/14 23:59:38;;;;;;;3.40;2.13;;;;;;;12.48;61.99;100806.91;15580780;28;20146;-53
